Time;durP1;ratioP1;P1;durP2;ratioP2;P2;SDS_P1;SDS_P2;PMS_P1;PMS_P2;Temp;Humidity;BMP_temperature;BMP_pressure;BME280_temperature;BME280_humidity;BME280_pressure;Samples;Min_cycle;Max_cycle;Signal;HPM_P1;HPM_P2
2023/09/06 00:01:35;;;;;;;2.03;1.45;;;;;;;25.86;49.45;101965.47;4981690;28;20392;-35
2023/09/06 00:04:02;;;;;;;6.50;2.03;;;;;;;25.87;49.49;101961.72;4982229;28;20050;-35
2023/09/06 00:06:28;;;;;;;3.13;1.90;;;;;;;25.84;48.98;101961.03;4983429;28;20062;-34
2023/09/06 00:08:55;;;;;;;3.60;1.60;;;;;;;25.84;49.32;101960.19;4983241;28;20046;-34
2023/09/06 00:11:22;;;;;;;3.67;1.98;;;;;;;25.83;49.19;101951.22;4985990;28;20042;-35
2023/09/06 00:13:48;;;;;;;2.88;1.65;;;;;;;25.83;49.12;101956.66;4985577;28;20054;-34
2023/09/06 00:16:16;;;;;;;3.08;1.65;;;;;;;25.83;49.29;101950.38;4987678;28;20042;-35
2023/09/06 00:18:43;;;;;;;2.67;1.30;;;;;;;25.82;49.03;101954.97;4980870;28;20047;-34
2023/09/06 00:21:10;;;;;;;3.22;1.30;;;;;;;25.82;49.40;101962.25;4986170;28;20055;-35
2023/09/06 00:23:36;;;;;;;2.92;1.52;;;;;;;25.81;49.43;101961.44;4984831;28;20155;-34
2023/09/06 00:26:03;;;;;;;4.40;2.00;;;;;;;25.81;49.18;101958.72;4981429;28;20366;-35
2023/09/06 00:28:29;;;;;;;6.88;1.90;;;;;;;25.81;49.22;101961.44;4980772;28;20055;-34
2023/09/06 00:30:57;;;;;;;4.90;1.48;;;;;;;25.80;49.05;101954.28;4985379;28;20083;-34
2023/09/06 00:33:26;;;;;;;4.72;1.60;;;;;;;25.78;48.92;101959.06;4984460;28;20113;-34
2023/09/06 00:35:54;;;;;;;1.63;1.50;;;;;;;25.77;48.78;101957.38;4984471;28;20371;-35
2023/09/06 00:38:20;;;;;;;2.80;1.65;;;;;;;25.77;49.23;101948.31;4985322;28;20046;-34
2023/09/06 00:40:53;;;;;;;4.88;2.17;;;;;;;25.76;49.02;101946.63;4978574;28;20078;-34
2023/09/06 00:43:19;;;;;;;1.85;1.52;;;;;;;25.75;49.01;101943.09;4986889;28;20096;-35
2023/09/06 00:45:50;;;;;;;1.80;1.40;;;;;;;25.75;48.96;101942.25;4986041;28;20050;-35
2023/09/06 00:48:22;;;;;;;3.40;1.90;;;;;;;25.74;48.90;101951.41;4982538;28;20051;-35
2023/09/06 00:50:55;;;;;;;3.58;1.90;;;;;;;25.74;49.10;101948.69;4982099;28;20085;-34
2023/09/06 00:53:24;;;;;;;2.55;1.70;;;;;;;25.72;49.03;101948.84;4983549;28;20054;-34
2023/09/06 00:55:51;;;;;;;2.85;1.50;;;;;;;25.71;49.32;101947.19;4982628;28;20054;-34
2023/09/06 00:58:19;;;;;;;3.53;1.45;;;;;;;25.70;49.10;101942.78;4983739;28;20100;-33
2023/09/06 01:00:48;;;;;;;3.78;1.40;;;;;;;25.71;49.23;101946.34;4982090;28;20053;-34
2023/09/06 01:03:16;;;;;;;2.85;1.27;;;;;;;25.69;49.29;101945.66;4987176;28;20046;-35
2023/09/06 01:06:14;;;;;;;2.53;1.63;;;;;;;25.66;49.05;101948.75;4987927;28;20173;-35
2023/09/06 01:08:46;;;;;;;3.58;1.63;;;;;;;25.67;49.18;101948.56;4983774;28;20050;-34
2023/09/06 01:11:21;;;;;;;2.53;1.73;;;;;;;25.67;49.20;101958.56;4982096;28;20050;-34
2023/09/06 01:13:50;;;;;;;3.10;1.92;;;;;;;25.68;49.18;101949.41;4986306;28;20490;-34
2023/09/06 01:16:26;;;;;;;1.92;1.63;;;;;;;25.66;49.26;101946.03;4989608;28;20384;-34
2023/09/06 01:18:53;;;;;;;5.15;1.48;;;;;;;25.65;49.11;101947.91;4983668;28;20565;-34
2023/09/06 01:21:25;;;;;;;2.20;1.80;;;;;;;25.64;49.04;101951.63;4982395;28;20061;-34
2023/09/06 01:23:54;;;;;;;3.13;1.60;;;;;;;25.64;49.09;101953.50;4982738;28;20046;-32
2023/09/06 01:26:22;;;;;;;4.97;2.15;;;;;;;25.63;48.90;101943.66;4983392;28;20046;-34
2023/09/06 01:28:49;;;;;;;2.47;1.55;;;;;;;25.62;48.90;101950.13;4985581;28;20678;-34
2023/09/06 01:31:16;;;;;;;2.58;1.67;;;;;;;25.60;49.26;101953.84;4980302;28;20097;-35
2023/09/06 01:33:43;;;;;;;3.22;1.90;;;;;;;25.59;49.28;101954.88;4981132;28;20082;-34
2023/09/06 01:36:10;;;;;;;2.30;1.70;;;;;;;25.57;49.30;101962.38;4980336;28;20455;-35
2023/09/06 01:38:36;;;;;;;2.05;1.80;;;;;;;25.56;49.27;101955.22;4982009;28;20348;-35
2023/09/06 01:41:04;;;;;;;3.65;1.80;;;;;;;25.55;49.47;101949.97;4980433;28;20392;-34
2023/09/06 01:43:31;;;;;;;2.97;1.70;;;;;;;25.55;49.41;101958.97;4982621;28;20226;-34
2023/09/06 01:45:58;;;;;;;2.20;1.80;;;;;;;25.55;49.51;101948.09;4981011;28;20088;-34
2023/09/06 01:48:25;;;;;;;2.88;1.67;;;;;;;25.56;49.18;101957.09;4986227;28;20133;-34
2023/09/06 01:50:53;;;;;;;3.50;1.60;;;;;;;25.55;49.36;101953.53;4984534;28;20130;-34
2023/09/06 01:53:22;;;;;;;3.25;2.00;;;;;;;25.53;49.34;101950.16;4983498;28;20094;-34
2023/09/06 01:55:50;;;;;;;3.67;1.80;;;;;;;25.52;49.47;101958.47;4982806;28;20061;-34
2023/09/06 01:58:17;;;;;;;1.95;1.42;;;;;;;25.50;49.48;101947.78;4983599;28;20150;-34
2023/09/06 02:00:45;;;;;;;3.20;1.98;;;;;;;25.49;49.35;101953.41;4980780;28;20327;-34
2023/09/06 02:03:15;;;;;;;2.45;1.80;;;;;;;25.47;49.42;101945.44;4979625;28;20046;-34
2023/09/06 02:05:43;;;;;;;2.35;1.80;;;;;;;25.46;49.62;101960.03;4981532;28;20498;-34
2023/09/06 02:08:11;;;;;;;3.80;1.95;;;;;;;25.46;49.59;101962.75;4982191;28;20046;-35
2023/09/06 02:10:37;;;;;;;3.00;1.85;;;;;;;25.45;49.76;101961.06;4986054;28;20086;-34
2023/09/06 02:13:04;;;;;;;3.17;1.83;;;;;;;25.46;49.21;101957.31;4984535;28;20058;-34
2023/09/06 02:15:31;;;;;;;2.35;1.75;;;;;;;25.46;49.38;101960.03;4981806;28;20481;-34
2023/09/06 02:17:57;;;;;;;3.55;1.83;;;;;;;25.45;49.27;101961.06;4984059;28;20047;-34
2023/09/06 02:20:25;;;;;;;3.60;1.77;;;;;;;25.44;49.39;101961.22;4983498;28;20046;-34
2023/09/06 02:22:57;;;;;;;3.05;1.80;;;;;;;25.42;49.59;101957.84;4984106;28;20291;-34
2023/09/06 02:25:36;;;;;;;3.10;2.00;;;;;;;25.38;49.66;101962.78;4982309;28;20046;-34
2023/09/06 02:28:04;;;;;;;2.63;1.60;;;;;;;25.35;49.51;101963.97;4982221;28;20051;-35
2023/09/06 02:30:32;;;;;;;3.05;1.92;;;;;;;25.33;50.06;101971.44;4978807;28;20050;-34
2023/09/06 02:33:00;;;;;;;2.00;1.63;;;;;;;25.31;49.67;101970.75;4983900;28;20042;-34
2023/09/06 02:35:27;;;;;;;4.07;1.88;;;;;;;25.29;50.07;101971.97;4979368;28;20054;-34
2023/09/06 02:37:53;;;;;;;2.83;1.77;;;;;;;25.27;50.26;101968.56;4980876;28;20338;-34
2023/09/06 02:40:20;;;;;;;2.42;1.65;;;;;;;25.24;50.18;101967.03;4980618;28;20054;-34
2023/09/06 02:42:51;;;;;;;2.85;1.80;;;;;;;25.24;50.70;101971.63;4981898;28;20050;-34
2023/09/06 02:45:18;;;;;;;3.42;2.03;;;;;;;25.23;50.38;101976.22;4983453;28;20425;-34
2023/09/06 02:47:49;;;;;;;3.05;2.10;;;;;;;25.21;50.68;101974.72;4981196;28;20358;-34
2023/09/06 02:50:22;;;;;;;2.85;1.85;;;;;;;25.18;50.49;101975.91;4984672;28;20058;-34
2023/09/06 02:52:52;;;;;;;4.33;1.80;;;;;;;25.17;50.96;101981.50;4982236;28;20042;-34
2023/09/06 02:55:19;;;;;;;3.00;1.50;;;;;;;25.18;50.85;101973.19;4977931;28;20563;-34
2023/09/06 02:57:46;;;;;;;4.32;2.00;;;;;;;25.18;50.93;101972.34;4983072;28;20055;-34
2023/09/06 03:00:25;;;;;;;2.67;1.73;;;;;;;25.17;51.06;101984.22;4983042;28;20089;-34
2023/09/06 03:03:05;;;;;;;3.03;1.85;;;;;;;25.14;50.74;101982.69;4986791;28;20351;-34
2023/09/06 03:05:42;;;;;;;4.05;2.20;;;;;;;25.10;51.02;101982.19;4980437;28;20054;-34
2023/09/06 03:08:10;;;;;;;2.13;1.80;;;;;;;25.10;51.18;101974.06;4987087;28;20141;-34
2023/09/06 03:10:39;;;;;;;3.97;2.20;;;;;;;25.09;50.75;101975.06;4985655;28;20055;-34
2023/09/06 03:13:06;;;;;;;2.58;1.90;;;;;;;25.08;50.73;101976.03;4986550;28;20086;-34
2023/09/06 03:15:34;;;;;;;2.67;2.05;;;;;;;25.06;51.19;101980.81;4990221;28;20129;-34
2023/09/06 03:18:02;;;;;;;2.53;1.77;;;;;;;25.06;51.03;101980.81;4987544;28;20057;-34
2023/09/06 03:20:42;;;;;;;2.30;1.50;;;;;;;25.04;50.98;101977.41;4985565;28;20080;-34
2023/09/06 03:23:17;;;;;;;3.03;1.77;;;;;;;25.03;51.36;101977.59;4983530;28;20050;-34
2023/09/06 03:25:49;;;;;;;2.63;1.80;;;;;;;25.01;51.01;101977.78;4982815;28;20328;-34
2023/09/06 03:28:20;;;;;;;3.17;1.80;;;;;;;25.00;51.41;101986.91;4985094;28;20398;-34
2023/09/06 03:30:48;;;;;;;2.25;1.70;;;;;;;25.02;51.14;101981.34;4982589;28;20129;-34
2023/09/06 03:33:15;;;;;;;2.78;1.73;;;;;;;25.01;51.07;101983.19;4986241;28;20108;-34
2023/09/06 03:35:45;;;;;;;2.70;1.95;;;;;;;25.02;50.97;101981.34;4982999;28;20334;-34
2023/09/06 03:38:15;;;;;;;4.53;2.15;;;;;;;25.02;50.95;101990.31;4984042;28;20050;-34
2023/09/06 03:40:42;;;;;;;3.53;1.95;;;;;;;25.02;51.13;101987.59;4985882;28;20314;-34
2023/09/06 03:43:15;;;;;;;4.30;1.90;;;;;;;25.00;51.38;101986.91;4983265;28;20334;-34
2023/09/06 03:45:44;;;;;;;3.13;2.30;;;;;;;24.99;51.23;101992.53;4985069;28;20070;-34
2023/09/06 03:48:13;;;;;;;3.28;1.75;;;;;;;24.97;51.11;101995.41;4981854;28;20054;-34
2023/09/06 03:50:40;;;;;;;3.17;1.52;;;;;;;24.96;50.92;101990.97;4986384;28;20055;-34
2023/09/06 03:53:07;;;;;;;3.65;1.58;;;;;;;24.95;51.44;101992.00;4983767;28;20046;-34
2023/09/06 03:55:34;;;;;;;5.80;2.60;;;;;;;24.95;51.15;101991.16;4981451;28;20050;-34
2023/09/06 03:58:07;;;;;;;4.13;1.92;;;;;;;24.94;51.68;102000.34;4984197;28;20046;-34
2023/09/06 04:00:34;;;;;;;3.10;1.95;;;;;;;24.92;51.54;101997.78;4982195;28;20047;-34
2023/09/06 04:03:03;;;;;;;3.05;1.90;;;;;;;24.88;51.69;101999.13;4984106;28;20046;-34
2023/09/06 04:05:32;;;;;;;13.07;4.97;;;;;;;24.86;52.30;102003.91;4985796;28;20050;-35
2023/09/06 04:08:03;;;;;;;13.65;4.22;;;;;;;24.82;51.74;101995.25;4982131;28;20050;-34
2023/09/06 04:10:36;;;;;;;8.50;3.53;;;;;;;24.82;51.72;102005.25;4986913;28;20423;-34
2023/09/06 04:13:07;;;;;;;11.30;4.43;;;;;;;24.80;52.48;102002.69;4985118;28;20042;-34
2023/09/06 04:15:37;;;;;;;8.70;3.75;;;;;;;24.83;51.83;101999.66;4984499;28;20050;-34
2023/09/06 04:18:06;;;;;;;11.70;4.07;;;;;;;24.82;52.03;102005.25;4981558;28;20351;-34
2023/09/06 04:20:38;;;;;;;13.80;4.03;;;;;;;24.83;52.02;102004.22;4980723;28;20089;-34
2023/09/06 04:23:07;;;;;;;11.95;4.78;;;;;;;24.82;52.38;101999.84;4988105;28;20108;-34
2023/09/06 04:25:41;;;;;;;9.25;4.32;;;;;;;24.83;51.94;101998.81;4982803;28;20047;-34
2023/09/06 04:28:10;;;;;;;8.75;4.18;;;;;;;24.83;51.94;102001.53;5017319;28;20089;-34
2023/09/06 04:30:37;;;;;;;8.98;4.85;;;;;;;24.84;52.24;102005.91;4985116;28;20060;-34
2023/09/06 04:33:10;;;;;;;15.38;5.60;;;;;;;24.83;52.26;101998.81;4984057;28;20110;-34
2023/09/06 04:35:44;;;;;;;10.20;5.30;;;;;;;24.81;52.51;102000.84;4983582;28;20133;-34
2023/09/06 04:38:12;;;;;;;13.10;4.65;;;;;;;24.82;52.51;101999.84;4983641;28;20132;-34
2023/09/06 04:40:39;;;;;;;10.15;5.03;;;;;;;24.82;52.35;102000.69;4981867;28;20315;-34
2023/09/06 04:43:07;;;;;;;9.43;5.07;;;;;;;24.81;52.36;102006.28;4984694;28;20104;-34
2023/09/06 04:45:37;;;;;;;8.25;4.85;;;;;;;24.80;52.24;102005.41;4981281;28;20050;-34
2023/09/06 04:48:09;;;;;;;9.68;5.03;;;;;;;24.81;52.34;102003.56;4979626;28;20529;-34
2023/09/06 04:50:40;;;;;;;11.15;5.63;;;;;;;24.80;52.40;101999.13;4978750;28;20078;-34
2023/09/06 04:53:08;;;;;;;9.70;5.10;;;;;;;24.79;52.48;102001.00;4980883;28;20079;-34
2023/09/06 04:55:36;;;;;;;9.38;5.40;;;;;;;24.79;52.21;102011.00;4989489;28;20054;-35
2023/09/06 04:58:10;;;;;;;10.88;5.32;;;;;;;24.78;52.17;102010.16;4990122;28;20059;-34
2023/09/06 05:00:43;;;;;;;6.53;3.92;;;;;;;24.78;52.58;102009.31;4976885;28;20351;-34
2023/09/06 05:03:17;;;;;;;9.63;5.15;;;;;;;24.78;52.44;102020.19;4983879;28;20153;-34
2023/09/06 05:05:45;;;;;;;8.60;4.72;;;;;;;24.76;52.17;102011.34;4978366;28;20047;-35
2023/09/06 05:08:12;;;;;;;10.70;5.70;;;;;;;24.76;52.00;102023.03;4980491;28;20097;-35
2023/09/06 05:10:39;;;;;;;9.95;4.68;;;;;;;24.76;52.34;102016.78;4981639;28;20465;-35
2023/09/06 05:13:11;;;;;;;8.60;4.75;;;;;;;24.75;52.24;102024.06;4981544;28;20074;-34
2023/09/06 05:15:38;;;;;;;9.57;5.40;;;;;;;24.76;52.50;102030.31;4979161;28;20117;-34
2023/09/06 05:18:07;;;;;;;11.85;5.05;;;;;;;24.75;52.44;102025.94;4982925;28;20046;-34
2023/09/06 05:20:38;;;;;;;7.20;4.50;;;;;;;24.74;52.26;102030.50;4982706;28;20092;-34
2023/09/06 05:23:07;;;;;;;7.93;4.70;;;;;;;24.76;52.54;102036.59;4980889;28;20057;-34
2023/09/06 05:25:35;;;;;;;8.88;5.00;;;;;;;24.75;51.86;102032.19;4982779;28;20649;-35
2023/09/06 05:28:10;;;;;;;7.25;4.47;;;;;;;24.74;51.88;102035.94;4983914;28;20047;-34
2023/09/06 05:30:41;;;;;;;7.05;4.38;;;;;;;24.75;51.93;102032.19;4985030;28;20373;-34
2023/09/06 05:33:08;;;;;;;8.80;4.32;;;;;;;24.77;52.34;102034.75;4979794;28;20043;-34
2023/09/06 05:35:36;;;;;;;7.70;4.65;;;;;;;24.77;52.33;102035.59;4978465;28;20046;-35
2023/09/06 05:38:03;;;;;;;7.43;4.38;;;;;;;24.78;52.34;102036.44;4982604;28;20058;-34
2023/09/06 05:40:32;;;;;;;6.72;3.97;;;;;;;24.78;52.25;102041.88;4983004;28;20437;-34
2023/09/06 05:42:59;;;;;;;7.50;3.90;;;;;;;24.77;52.19;102041.03;4980558;28;20045;-34
2023/09/06 05:45:26;;;;;;;7.90;4.47;;;;;;;24.77;52.10;102035.59;4978183;28;20100;-33
2023/09/06 05:47:53;;;;;;;7.20;4.00;;;;;;;24.78;51.88;102048.13;4980364;28;20761;-33
2023/09/06 05:50:20;;;;;;;9.90;4.32;;;;;;;24.78;51.98;102047.28;4983254;28;20070;-33
2023/09/06 05:52:46;;;;;;;8.95;5.25;;;;;;;24.78;51.69;102050.84;4979565;28;20404;-33
2023/09/06 05:55:14;;;;;;;7.03;4.20;;;;;;;24.78;51.83;102050.00;4982308;28;20086;-34
2023/09/06 05:57:41;;;;;;;8.32;4.72;;;;;;;24.77;52.17;102049.16;4983506;28;20046;-33
2023/09/06 06:00:15;;;;;;;6.25;4.00;;;;;;;24.77;51.81;102049.16;4979727;28;20042;-33
2023/09/06 06:02:45;;;;;;;10.20;4.00;;;;;;;24.78;51.92;102052.72;4980950;28;20615;-34
2023/09/06 06:05:12;;;;;;;7.65;4.03;;;;;;;24.77;52.05;102056.44;4983152;28;20057;-34
2023/09/06 06:07:39;;;;;;;7.22;4.85;;;;;;;24.78;51.90;102058.13;4977983;28;20059;-34
2023/09/06 06:10:12;;;;;;;6.43;4.28;;;;;;;24.78;51.98;102055.44;4981136;28;20058;-34
2023/09/06 06:12:39;;;;;;;7.45;4.85;;;;;;;24.77;52.07;102062.72;4972429;28;20489;-34
2023/09/06 06:15:13;;;;;;;7.68;4.55;;;;;;;24.79;51.90;102059.81;4979850;28;20054;-34
2023/09/06 06:17:41;;;;;;;6.15;4.35;;;;;;;24.80;51.92;102058.81;4981955;28;20430;-34
2023/09/06 06:20:10;;;;;;;7.28;4.35;;;;;;;24.79;51.98;102063.38;4980993;28;20050;-34
2023/09/06 06:22:38;;;;;;;8.68;4.97;;;;;;;24.81;51.82;102063.22;4978809;28;20351;-34
2023/09/06 06:25:12;;;;;;;6.63;3.92;;;;;;;24.82;51.88;102059.50;4977524;28;20054;-34
2023/09/06 06:27:39;;;;;;;6.57;3.88;;;;;;;24.85;51.66;102064.59;4981528;28;20050;-34
2023/09/06 06:30:07;;;;;;;5.18;3.50;;;;;;;24.86;51.94;102063.56;4980551;28;20062;-35
2023/09/06 06:32:34;;;;;;;6.82;4.00;;;;;;;24.88;51.82;102064.22;4981338;28;20497;-35
2023/09/06 06:35:05;;;;;;;5.55;3.60;;;;;;;24.90;51.84;102062.22;4983451;28;20054;-33
2023/09/06 06:37:35;;;;;;;6.07;3.35;;;;;;;24.92;51.46;102062.03;4981335;28;20132;-33
2023/09/06 06:40:02;;;;;;;4.88;3.90;;;;;;;24.93;51.51;102069.16;5012035;28;20516;-33
2023/09/06 06:42:29;;;;;;;4.93;3.58;;;;;;;24.94;51.43;102077.13;4982620;28;20089;-33
2023/09/06 06:44:55;;;;;;;5.47;3.90;;;;;;;24.95;51.54;102070.66;4986901;28;20154;-33
2023/09/06 06:47:22;;;;;;;5.95;3.92;;;;;;;24.95;51.30;102073.38;4985902;28;20058;-33
2023/09/06 06:49:54;;;;;;;7.35;4.40;;;;;;;24.96;51.13;102083.22;4983554;28;20097;-33
2023/09/06 06:52:22;;;;;;;7.30;4.07;;;;;;;24.96;51.32;102082.38;4986177;28;20070;-33
2023/09/06 06:54:49;;;;;;;7.75;3.92;;;;;;;24.96;51.21;102080.50;4985634;28;20109;-34
2023/09/06 06:57:15;;;;;;;5.53;3.90;;;;;;;24.97;50.88;102084.94;4986315;28;20051;-34
2023/09/06 06:59:42;;;;;;;6.55;3.85;;;;;;;24.98;51.34;102083.06;4983207;28;20070;-34
2023/09/06 07:02:09;;;;;;;6.63;3.63;;;;;;;24.99;51.40;102090.16;4981629;28;20156;-34
2023/09/06 07:04:36;;;;;;;7.72;4.55;;;;;;;24.99;51.38;102084.75;4986852;28;20049;-34
2023/09/06 07:07:03;;;;;;;6.28;3.83;;;;;;;25.01;51.18;102086.28;4987850;28;20047;-33
2023/09/06 07:09:30;;;;;;;9.50;4.32;;;;;;;25.02;51.27;102087.97;4990115;28;20426;-34
2023/09/06 07:11:56;;;;;;;9.32;4.65;;;;;;;25.02;51.14;102087.97;4981613;28;20063;-33
2023/09/06 07:14:23;;;;;;;7.90;4.10;;;;;;;25.04;51.03;102088.63;4982986;28;20046;-34
2023/09/06 07:16:49;;;;;;;8.25;4.40;;;;;;;25.05;51.06;102084.94;4986840;28;20042;-34
2023/09/06 07:19:16;;;;;;;9.32;3.85;;;;;;;25.06;50.93;102080.34;4981797;28;20443;-33
2023/09/06 07:21:44;;;;;;;7.22;4.00;;;;;;;25.06;51.05;102089.31;4985068;28;20050;-34
2023/09/06 07:24:13;;;;;;;7.28;4.18;;;;;;;25.07;51.00;102082.03;4984480;28;20050;-34
2023/09/06 07:26:40;;;;;;;9.73;4.18;;;;;;;25.07;51.38;102091.00;5012922;28;20070;-33
2023/09/06 07:29:07;;;;;;;6.63;4.18;;;;;;;25.08;51.19;102091.84;4984729;28;20063;-33
2023/09/06 07:31:33;;;;;;;8.23;4.25;;;;;;;25.07;51.31;102091.00;4985423;28;20069;-34
2023/09/06 07:34:00;;;;;;;6.20;4.07;;;;;;;25.09;51.48;102096.31;4983609;28;20101;-33
2023/09/06 07:36:27;;;;;;;5.90;4.07;;;;;;;25.08;51.42;102091.84;4988541;28;20456;-33
2023/09/06 07:38:55;;;;;;;7.72;4.00;;;;;;;25.08;51.47;102097.28;4980498;28;20081;-33
2023/09/06 07:41:22;;;;;;;6.78;3.88;;;;;;;25.08;51.52;102103.56;4983528;28;20050;-33
2023/09/06 07:43:49;;;;;;;8.50;4.13;;;;;;;25.09;51.36;102099.03;4984426;28;20161;-33
2023/09/06 07:46:15;;;;;;;5.93;3.83;;;;;;;25.08;51.45;102106.25;4986730;28;20605;-33
2023/09/06 07:48:42;;;;;;;8.80;4.20;;;;;;;25.10;51.18;102106.16;4979430;28;20047;-33
2023/09/06 07:51:10;;;;;;;5.25;4.10;;;;;;;25.10;51.60;102103.44;4983749;28;20050;-33
2023/09/06 07:53:37;;;;;;;7.43;3.72;;;;;;;25.10;51.45;102111.56;4981122;28;20035;-33
2023/09/06 07:56:06;;;;;;;9.45;3.80;;;;;;;25.09;51.28;102113.44;4981963;28;20130;-33
2023/09/06 07:58:33;;;;;;;5.93;3.70;;;;;;;25.09;51.11;102118.88;4986146;28;20394;-33
2023/09/06 08:01:01;;;;;;;5.32;3.45;;;;;;;25.09;51.07;102118.03;4987026;28;20615;-33
2023/09/06 08:03:45;;;;;;;9.90;3.65;;;;;;;25.10;51.18;102122.44;5010377;28;20045;-33
2023/09/06 08:06:13;;;;;;;7.03;3.60;;;;;;;25.10;50.90;102125.13;4984277;28;20104;-34
2023/09/06 08:08:41;;;;;;;7.03;4.10;;;;;;;25.10;51.45;102119.72;4984961;28;20129;-33
2023/09/06 08:11:08;;;;;;;9.30;4.65;;;;;;;25.10;51.29;102125.97;4986084;28;20058;-33
2023/09/06 08:13:37;;;;;;;8.32;4.53;;;;;;;25.11;50.78;102121.41;4983812;28;20069;-33
2023/09/06 08:16:05;;;;;;;12.13;4.30;;;;;;;25.13;51.09;102129.34;4985625;28;20097;-34
2023/09/06 08:18:32;;;;;;;12.48;5.22;;;;;;;25.16;51.20;102129.03;4980476;28;20051;-34
2023/09/06 08:21:00;;;;;;;10.80;4.07;;;;;;;25.15;51.09;102130.91;4979526;28;20085;-34
2023/09/06 08:23:27;;;;;;;9.18;3.67;;;;;;;25.16;51.10;102129.88;4982074;28;20128;-33
2023/09/06 08:25:56;;;;;;;9.05;4.10;;;;;;;25.16;51.27;102124.44;4982973;28;20189;-33
2023/09/06 08:28:22;;;;;;;12.10;4.22;;;;;;;25.17;50.93;102128.03;4984047;28;20329;-33
2023/09/06 08:30:49;;;;;;;5.55;3.85;;;;;;;25.17;51.19;102131.59;5016042;28;20382;-34
2023/09/06 08:33:16;;;;;;;8.80;4.00;;;;;;;25.18;50.91;102127.00;4982730;28;20155;-34
2023/09/06 08:35:43;;;;;;;6.35;3.30;;;;;;;25.18;51.21;102125.13;4980667;28;20051;-33
2023/09/06 08:38:10;;;;;;;9.88;4.25;;;;;;;25.20;50.82;102133.09;4981785;28;20054;-33
2023/09/06 08:40:52;;;;;;;8.10;3.78;;;;;;;25.21;51.17;102130.22;5009405;28;20046;-33
2023/09/06 08:43:19;;;;;;;8.43;3.70;;;;;;;25.21;50.70;102126.69;4981997;28;20046;-34
2023/09/06 08:45:48;;;;;;;6.60;3.63;;;;;;;25.22;50.98;102129.22;4980457;28;20047;-34
2023/09/06 08:48:15;;;;;;;9.57;3.78;;;;;;;25.23;50.94;102124.63;4987602;28;20053;-34
2023/09/06 08:50:45;;;;;;;5.28;2.95;;;;;;;25.23;50.87;102133.59;4979425;28;20384;-34
2023/09/06 08:53:15;;;;;;;5.47;2.80;;;;;;;25.24;50.63;102129.03;4979619;28;20050;-34
2023/09/06 08:55:44;;;;;;;6.82;3.10;;;;;;;25.25;51.13;102136.16;4978189;28;20050;-34
2023/09/06 08:58:11;;;;;;;5.68;2.60;;;;;;;25.25;50.89;102131.59;4981305;28;20125;-34
2023/09/06 09:00:38;;;;;;;3.80;2.45;;;;;;;25.25;50.56;102134.31;4980846;28;20497;-34
2023/09/06 09:03:05;;;;;;;5.67;2.33;;;;;;;25.26;50.97;102132.44;4986762;28;20057;-34
2023/09/06 09:05:31;;;;;;;4.90;2.80;;;;;;;25.26;51.02;102127.00;4978749;28;20471;-34
2023/09/06 09:08:00;;;;;;;4.95;2.25;;;;;;;25.27;50.79;102128.69;4982962;28;20061;-34
2023/09/06 09:10:31;;;;;;;3.95;2.63;;;;;;;25.27;50.76;102129.53;4986587;28;20137;-34
2023/09/06 09:13:00;;;;;;;3.83;2.30;;;;;;;25.29;50.95;102129.38;4979974;28;20046;-33
2023/09/06 09:15:30;;;;;;;8.13;2.50;;;;;;;25.29;50.85;102130.22;4979764;28;20480;-33
2023/09/06 09:17:58;;;;;;;5.47;2.50;;;;;;;25.31;50.52;102130.88;4984232;28;20679;-33
2023/09/06 09:20:30;;;;;;;4.78;2.10;;;;;;;25.33;50.62;102133.44;4987308;28;20121;-33
2023/09/06 09:23:02;;;;;;;4.22;2.50;;;;;;;25.33;50.47;102134.28;4983387;28;20126;-33
2023/09/06 09:25:30;;;;;;;3.55;1.98;;;;;;;25.35;50.65;102139.53;4979874;28;20050;-33
2023/09/06 09:27:57;;;;;;;8.52;2.83;;;;;;;25.36;51.00;102135.78;4979756;28;20050;-33
2023/09/06 09:30:30;;;;;;;6.15;2.50;;;;;;;25.39;50.60;102132.75;4983746;28;20051;-33
2023/09/06 09:33:03;;;;;;;3.97;2.47;;;;;;;25.41;50.90;102130.72;4977262;28;20107;-33
2023/09/06 09:35:32;;;;;;;4.82;2.28;;;;;;;25.44;50.93;102124.94;4983966;28;20127;-34
2023/09/06 09:38:01;;;;;;;5.00;1.98;;;;;;;25.47;50.90;102130.03;4983278;28;20050;-34
2023/09/06 09:40:36;;;;;;;4.10;2.10;;;;;;;25.51;50.97;102127.81;5017454;28;20056;-33
2023/09/06 09:43:21;;;;;;;5.43;2.50;;;;;;;25.55;51.13;102130.00;4982215;28;20054;-34
2023/09/06 09:45:47;;;;;;;4.15;2.42;;;;;;;25.62;51.18;102129.34;4981955;28;20358;-34
2023/09/06 09:48:16;;;;;;;5.57;2.90;;;;;;;25.66;50.82;102128.81;4977720;28;20149;-34
2023/09/06 09:50:46;;;;;;;4.38;2.88;;;;;;;25.73;50.51;102134.38;4982447;28;20351;-34
2023/09/06 09:53:19;;;;;;;9.40;2.50;;;;;;;25.78;50.62;102126.59;4979996;28;20387;-33
2023/09/06 09:55:48;;;;;;;6.50;2.65;;;;;;;25.84;50.83;102129.44;4985716;28;20050;-33
2023/09/06 09:58:17;;;;;;;4.80;2.65;;;;;;;25.90;50.53;102130.66;4979038;28;20461;-33
2023/09/06 10:00:44;;;;;;;6.55;2.58;;;;;;;25.95;50.66;102130.97;4977249;28;20042;-33
2023/09/06 10:03:13;;;;;;;4.88;2.83;;;;;;;26.01;50.51;102124.84;4983658;28;20053;-33
2023/09/06 10:05:42;;;;;;;8.70;2.83;;;;;;;26.07;50.34;102123.28;4980677;28;20319;-34
2023/09/06 10:08:10;;;;;;;5.90;2.53;;;;;;;26.12;50.49;102122.75;4978109;28;20449;-34
2023/09/06 10:10:40;;;;;;;4.78;2.65;;;;;;;26.17;50.37;102125.75;4982230;28;20047;-34
2023/09/06 10:13:08;;;;;;;6.53;2.70;;;;;;;26.22;50.30;102120.66;4987508;28;20054;-34
2023/09/06 10:15:37;;;;;;;3.63;2.65;;;;;;;26.27;50.36;102120.97;4983886;28;20132;-34
2023/09/06 10:18:07;;;;;;;7.88;2.80;;;;;;;26.31;50.24;102127.75;4982810;28;20051;-33
2023/09/06 10:20:36;;;;;;;5.43;2.88;;;;;;;26.35;50.32;102112.78;4979039;28;20338;-34
2023/09/06 10:23:05;;;;;;;5.18;2.75;;;;;;;26.41;50.10;102122.91;4979178;28;20060;-34
2023/09/06 10:25:39;;;;;;;5.82;2.70;;;;;;;26.45;50.17;102113.41;4980462;28;20038;-34
2023/09/06 10:28:07;;;;;;;9.32;2.72;;;;;;;26.50;50.32;102123.78;4983741;28;20061;-34
2023/09/06 10:30:45;;;;;;;7.32;3.08;;;;;;;26.54;49.98;102123.25;4981627;28;20054;-34
2023/09/06 10:33:35;;;;;;;7.13;2.75;;;;;;;26.57;49.87;102122.00;4976061;28;20404;-34
2023/09/06 10:36:08;;;;;;;4.07;2.50;;;;;;;26.63;50.04;102109.59;4983133;28;20054;-34
2023/09/06 10:38:51;;;;;;;5.07;2.70;;;;;;;26.66;50.09;102120.97;4977919;28;20115;-34
2023/09/06 10:41:22;;;;;;;5.35;2.85;;;;;;;26.71;49.93;102123.97;4977733;28;20054;-34
2023/09/06 10:43:57;;;;;;;8.27;3.17;;;;;;;26.73;50.08;102111.03;4977925;28;20062;-34
2023/09/06 10:46:30;;;;;;;9.13;3.30;;;;;;;26.76;49.80;102110.66;4989472;28;20386;-34
2023/09/06 10:49:12;;;;;;;6.57;2.60;;;;;;;26.81;49.75;102123.72;4981880;28;20055;-34
2023/09/06 10:52:08;;;;;;;4.40;2.13;;;;;;;26.84;49.35;102112.47;4978342;28;20086;-34
2023/09/06 10:54:43;;;;;;;6.65;2.45;;;;;;;26.87;49.31;102112.13;4977620;28;20050;-34
2023/09/06 10:57:12;;;;;;;4.50;2.20;;;;;;;26.91;48.95;102113.47;4985987;28;20062;-34
2023/09/06 10:59:43;;;;;;;5.88;2.40;;;;;;;26.94;49.32;102109.53;4981601;28;20054;-34
2023/09/06 11:02:19;;;;;;;4.60;2.60;;;;;;;26.95;49.00;102109.34;4976628;28;20061;-34
2023/09/06 11:04:48;;;;;;;4.18;2.60;;;;;;;26.98;49.14;102106.25;4986429;28;20139;-34
2023/09/06 11:07:15;;;;;;;4.63;2.55;;;;;;;26.98;49.02;102100.81;4983124;28;20386;-34
2023/09/06 11:09:44;;;;;;;6.07;2.90;;;;;;;26.98;49.13;102105.41;4981255;28;20042;-34
2023/09/06 11:12:14;;;;;;;4.05;2.20;;;;;;;26.97;49.49;102100.97;4982470;28;20054;-34
2023/09/06 11:14:42;;;;;;;5.07;2.42;;;;;;;26.98;49.21;102102.69;4977260;28;20046;-34
2023/09/06 11:17:12;;;;;;;5.72;2.38;;;;;;;26.96;48.98;102097.41;4984566;28;20113;-35
2023/09/06 11:19:39;;;;;;;2.63;1.90;;;;;;;26.97;48.84;102098.25;4987873;28;20054;-35
2023/09/06 11:22:10;;;;;;;8.15;2.00;;;;;;;26.96;48.95;102100.16;5003436;28;20050;-34
2023/09/06 11:24:37;;;;;;;3.53;2.10;;;;;;;26.96;48.75;102097.41;4977217;28;20063;-35
2023/09/06 11:27:22;;;;;;;6.10;2.15;;;;;;;26.96;48.83;102099.31;4979507;28;20046;-35
2023/09/06 11:29:59;;;;;;;3.33;1.80;;;;;;;26.98;49.17;102102.69;4985748;28;20094;-35
2023/09/06 11:32:27;;;;;;;5.03;1.90;;;;;;;26.96;48.73;102097.41;4984356;28;20508;-35
2023/09/06 11:34:54;;;;;;;8.95;2.30;;;;;;;26.95;49.11;102095.75;4985650;28;20042;-34